sensor_id;sensor_type;location;lat;lon;timestamp;P1;durP1;ratioP1;P2;durP2;ratioP2
68475;SDS011;55464;48.266;14.188;2022-12-13T00:02:13;23.60;;;10.57;;
68475;SDS011;55464;48.266;14.188;2022-12-13T00:04:48;22.30;;;10.57;;
68475;SDS011;55464;48.266;14.188;2022-12-13T00:07:19;24.38;;;11.80;;
68475;SDS011;55464;48.266;14.188;2022-12-13T00:09:55;28.60;;;11.55;;
68475;SDS011;55464;48.266;14.188;2022-12-13T00:12:20;27.42;;;10.73;;
68475;SDS011;55464;48.266;14.188;2022-12-13T00:14:46;22.27;;;10.55;;
68475;SDS011;55464;48.266;14.188;2022-12-13T00:17:13;31.73;;;13.95;;
68475;SDS011;55464;48.266;14.188;2022-12-13T00:19:46;28.88;;;14.30;;
68475;SDS011;55464;48.266;14.188;2022-12-13T00:22:14;27.20;;;13.40;;
68475;SDS011;55464;48.266;14.188;2022-12-13T00:25:32;30.35;;;13.13;;
68475;SDS011;55464;48.266;14.188;2022-12-13T00:27:52;25.35;;;12.05;;
68475;SDS011;55464;48.266;14.188;2022-12-13T00:30:43;26.70;;;11.55;;
68475;SDS011;55464;48.266;14.188;2022-12-13T00:33:21;23.92;;;11.20;;
68475;SDS011;55464;48.266;14.188;2022-12-13T00:36:06;25.55;;;11.68;;
68475;SDS011;55464;48.266;14.188;2022-12-13T00:38:46;26.27;;;11.43;;
68475;SDS011;55464;48.266;14.188;2022-12-13T00:41:29;30.90;;;12.17;;
68475;SDS011;55464;48.266;14.188;2022-12-13T00:44:12;29.25;;;11.73;;
68475;SDS011;55464;48.266;14.188;2022-12-13T00:47:10;26.00;;;11.63;;
68475;SDS011;55464;48.266;14.188;2022-12-13T00:49:52;19.60;;;10.30;;
68475;SDS011;55464;48.266;14.188;2022-12-13T00:52:28;25.52;;;10.77;;
68475;SDS011;55464;48.266;14.188;2022-12-13T00:54:58;29.80;;;12.55;;
68475;SDS011;55464;48.266;14.188;2022-12-13T00:57:53;21.52;;;10.70;;
68475;SDS011;55464;48.266;14.188;2022-12-13T01:00:31;24.88;;;10.35;;
68475;SDS011;55464;48.266;14.188;2022-12-13T01:03:18;27.52;;;10.60;;
68475;SDS011;55464;48.266;14.188;2022-12-13T01:05:56;24.27;;;11.50;;
68475;SDS011;55464;48.266;14.188;2022-12-13T01:08:36;29.15;;;12.10;;
68475;SDS011;55464;48.266;14.188;2022-12-13T01:11:11;24.83;;;12.25;;
68475;SDS011;55464;48.266;14.188;2022-12-13T01:13:51;23.05;;;10.68;;
68475;SDS011;55464;48.266;14.188;2022-12-13T01:16:18;24.67;;;12.38;;
68475;SDS011;55464;48.266;14.188;2022-12-13T01:19:12;25.15;;;11.23;;
68475;SDS011;55464;48.266;14.188;2022-12-13T01:21:44;24.02;;;11.57;;
68475;SDS011;55464;48.266;14.188;2022-12-13T01:26:40;24.38;;;10.30;;
68475;SDS011;55464;48.266;14.188;2022-12-13T01:29:06;27.52;;;10.73;;
68475;SDS011;55464;48.266;14.188;2022-12-13T01:31:41;27.33;;;11.57;;
68475;SDS011;55464;48.266;14.188;2022-12-13T01:34:30;21.85;;;11.10;;
68475;SDS011;55464;48.266;14.188;2022-12-13T01:37:08;24.10;;;11.15;;
68475;SDS011;55464;48.266;14.188;2022-12-13T01:39:36;32.80;;;12.32;;
68475;SDS011;55464;48.266;14.188;2022-12-13T01:42:13;26.20;;;11.15;;
68475;SDS011;55464;48.266;14.188;2022-12-13T01:47:55;23.48;;;9.93;;
68475;SDS011;55464;48.266;14.188;2022-12-13T01:50:33;19.30;;;8.98;;
68475;SDS011;55464;48.266;14.188;2022-12-13T01:53:37;19.67;;;9.73;;
68475;SDS011;55464;48.266;14.188;2022-12-13T01:56:42;20.90;;;10.23;;
68475;SDS011;55464;48.266;14.188;2022-12-13T02:02:59;22.58;;;9.73;;
68475;SDS011;55464;48.266;14.188;2022-12-13T02:05:46;42.60;;;17.52;;
68475;SDS011;55464;48.266;14.188;2022-12-13T02:08:29;63.00;;;20.42;;
68475;SDS011;55464;48.266;14.188;2022-12-13T02:10:55;29.40;;;12.25;;
68475;SDS011;55464;48.266;14.188;2022-12-13T02:13:46;20.48;;;10.02;;
68475;SDS011;55464;48.266;14.188;2022-12-13T02:29:00;22.48;;;8.55;;
68475;SDS011;55464;48.266;14.188;2022-12-13T02:38:00;24.52;;;10.10;;
68475;SDS011;55464;48.266;14.188;2022-12-13T02:50:36;30.95;;;10.15;;
68475;SDS011;55464;48.266;14.188;2022-12-13T02:53:25;26.77;;;10.65;;
68475;SDS011;55464;48.266;14.188;2022-12-13T02:55:56;28.60;;;10.20;;
68475;SDS011;55464;48.266;14.188;2022-12-13T02:59:22;33.38;;;10.88;;
68475;SDS011;55464;48.266;14.188;2022-12-13T03:12:29;28.13;;;11.07;;
68475;SDS011;55464;48.266;14.188;2022-12-13T03:14:54;26.80;;;9.02;;
68475;SDS011;55464;48.266;14.188;2022-12-13T03:17:46;29.02;;;10.10;;
68475;SDS011;55464;48.266;14.188;2022-12-13T03:21:20;22.63;;;8.80;;
68475;SDS011;55464;48.266;14.188;2022-12-13T03:30:30;18.38;;;8.20;;
68475;SDS011;55464;48.266;14.188;2022-12-13T03:36:30;28.02;;;9.93;;
68475;SDS011;55464;48.266;14.188;2022-12-13T03:38:58;23.35;;;9.40;;
68475;SDS011;55464;48.266;14.188;2022-12-13T03:41:46;22.58;;;8.93;;
68475;SDS011;55464;48.266;14.188;2022-12-13T03:44:18;20.13;;;8.63;;
68475;SDS011;55464;48.266;14.188;2022-12-13T03:47:15;25.35;;;9.55;;
68475;SDS011;55464;48.266;14.188;2022-12-13T03:50:26;20.85;;;9.05;;
68475;SDS011;55464;48.266;14.188;2022-12-13T03:53:26;20.05;;;8.70;;
68475;SDS011;55464;48.266;14.188;2022-12-13T03:56:11;21.25;;;8.60;;
68475;SDS011;55464;48.266;14.188;2022-12-13T03:58:53;25.08;;;9.60;;
68475;SDS011;55464;48.266;14.188;2022-12-13T04:01:20;18.20;;;9.65;;
68475;SDS011;55464;48.266;14.188;2022-12-13T04:03:52;21.50;;;8.98;;
68475;SDS011;55464;48.266;14.188;2022-12-13T04:06:28;18.00;;;8.77;;
68475;SDS011;55464;48.266;14.188;2022-12-13T04:09:14;20.70;;;8.50;;
68475;SDS011;55464;48.266;14.188;2022-12-13T04:11:57;22.00;;;9.65;;
68475;SDS011;55464;48.266;14.188;2022-12-13T04:14:41;21.10;;;9.80;;
68475;SDS011;55464;48.266;14.188;2022-12-13T04:17:19;19.92;;;9.55;;
68475;SDS011;55464;48.266;14.188;2022-12-13T04:19:52;19.20;;;9.30;;
68475;SDS011;55464;48.266;14.188;2022-12-13T04:22:41;20.00;;;8.82;;
68475;SDS011;55464;48.266;14.188;2022-12-13T04:25:07;24.90;;;10.27;;
68475;SDS011;55464;48.266;14.188;2022-12-13T04:27:45;17.25;;;8.32;;
68475;SDS011;55464;48.266;14.188;2022-12-13T04:30:33;20.52;;;9.23;;
68475;SDS011;55464;48.266;14.188;2022-12-13T04:33:03;20.92;;;9.27;;
68475;SDS011;55464;48.266;14.188;2022-12-13T04:35:29;20.90;;;9.23;;
68475;SDS011;55464;48.266;14.188;2022-12-13T04:38:03;20.63;;;9.02;;
68475;SDS011;55464;48.266;14.188;2022-12-13T04:40:40;29.00;;;8.15;;
68475;SDS011;55464;48.266;14.188;2022-12-13T04:43:15;18.75;;;8.52;;
68475;SDS011;55464;48.266;14.188;2022-12-13T04:45:48;17.20;;;8.77;;
68475;SDS011;55464;48.266;14.188;2022-12-13T04:51:42;19.00;;;9.18;;
68475;SDS011;55464;48.266;14.188;2022-12-13T04:54:15;19.63;;;9.15;;
68475;SDS011;55464;48.266;14.188;2022-12-13T04:57:42;23.15;;;8.73;;
68475;SDS011;55464;48.266;14.188;2022-12-13T04:59:52;24.70;;;9.63;;
68475;SDS011;55464;48.266;14.188;2022-12-13T05:02:22;21.40;;;8.95;;
68475;SDS011;55464;48.266;14.188;2022-12-13T05:05:27;18.52;;;7.95;;
68475;SDS011;55464;48.266;14.188;2022-12-13T05:07:56;19.73;;;7.75;;
68475;SDS011;55464;48.266;14.188;2022-12-13T05:10:23;22.02;;;8.40;;
68475;SDS011;55464;48.266;14.188;2022-12-13T05:12:58;14.02;;;7.70;;
68475;SDS011;55464;48.266;14.188;2022-12-13T05:15:43;19.10;;;8.15;;
68475;SDS011;55464;48.266;14.188;2022-12-13T05:18:48;16.73;;;7.82;;
68475;SDS011;55464;48.266;14.188;2022-12-13T05:21:21;11.68;;;6.63;;
68475;SDS011;55464;48.266;14.188;2022-12-13T05:23:48;16.52;;;7.82;;
68475;SDS011;55464;48.266;14.188;2022-12-13T05:26:34;16.25;;;8.05;;
68475;SDS011;55464;48.266;14.188;2022-12-13T05:29:53;19.92;;;7.90;;
68475;SDS011;55464;48.266;14.188;2022-12-13T05:40:08;21.10;;;7.20;;
68475;SDS011;55464;48.266;14.188;2022-12-13T05:43:12;13.95;;;6.78;;
68475;SDS011;55464;48.266;14.188;2022-12-13T05:52:13;13.57;;;6.43;;
68475;SDS011;55464;48.266;14.188;2022-12-13T05:55:03;12.40;;;6.18;;
68475;SDS011;55464;48.266;14.188;2022-12-13T05:57:33;14.43;;;6.43;;
68475;SDS011;55464;48.266;14.188;2022-12-13T06:00:14;12.77;;;5.75;;
68475;SDS011;55464;48.266;14.188;2022-12-13T06:03:08;15.13;;;7.80;;
68475;SDS011;55464;48.266;14.188;2022-12-13T06:05:39;14.82;;;6.65;;
68475;SDS011;55464;48.266;14.188;2022-12-13T06:08:31;12.55;;;6.18;;
68475;SDS011;55464;48.266;14.188;2022-12-13T06:11:09;20.65;;;7.50;;
68475;SDS011;55464;48.266;14.188;2022-12-13T06:13:41;12.38;;;6.55;;
68475;SDS011;55464;48.266;14.188;2022-12-13T06:16:18;15.35;;;7.07;;
68475;SDS011;55464;48.266;14.188;2022-12-13T06:18:43;13.60;;;6.35;;
68475;SDS011;55464;48.266;14.188;2022-12-13T06:21:09;15.77;;;6.53;;
68475;SDS011;55464;48.266;14.188;2022-12-13T06:23:36;13.90;;;6.60;;
68475;SDS011;55464;48.266;14.188;2022-12-13T06:26:02;17.27;;;6.93;;
68475;SDS011;55464;48.266;14.188;2022-12-13T06:28:29;18.63;;;6.88;;
68475;SDS011;55464;48.266;14.188;2022-12-13T06:30:57;17.98;;;6.63;;
68475;SDS011;55464;48.266;14.188;2022-12-13T06:33:24;13.67;;;6.17;;
68475;SDS011;55464;48.266;14.188;2022-12-13T06:35:49;18.70;;;7.35;;
68475;SDS011;55464;48.266;14.188;2022-12-13T06:38:16;19.50;;;7.18;;
68475;SDS011;55464;48.266;14.188;2022-12-13T06:40:42;15.65;;;7.30;;
68475;SDS011;55464;48.266;14.188;2022-12-13T06:43:08;15.13;;;6.90;;
68475;SDS011;55464;48.266;14.188;2022-12-13T06:45:39;14.45;;;6.35;;
68475;SDS011;55464;48.266;14.188;2022-12-13T06:48:04;18.02;;;7.25;;
68475;SDS011;55464;48.266;14.188;2022-12-13T06:50:31;14.77;;;6.97;;
68475;SDS011;55464;48.266;14.188;2022-12-13T06:52:57;18.13;;;7.15;;
68475;SDS011;55464;48.266;14.188;2022-12-13T06:55:23;14.07;;;6.20;;
68475;SDS011;55464;48.266;14.188;2022-12-13T06:57:48;14.30;;;6.47;;
68475;SDS011;55464;48.266;14.188;2022-12-13T07:00:14;15.02;;;6.82;;
68475;SDS011;55464;48.266;14.188;2022-12-13T07:02:40;19.88;;;6.53;;
68475;SDS011;55464;48.266;14.188;2022-12-13T07:05:06;14.18;;;7.32;;
68475;SDS011;55464;48.266;14.188;2022-12-13T07:07:35;14.18;;;6.63;;
68475;SDS011;55464;48.266;14.188;2022-12-13T07:10:00;15.57;;;7.10;;
68475;SDS011;55464;48.266;14.188;2022-12-13T07:12:26;19.70;;;6.72;;
68475;SDS011;55464;48.266;14.188;2022-12-13T07:14:51;15.43;;;7.03;;
68475;SDS011;55464;48.266;14.188;2022-12-13T07:17:19;17.75;;;6.93;;
68475;SDS011;55464;48.266;14.188;2022-12-13T07:19:46;18.45;;;7.78;;
68475;SDS011;55464;48.266;14.188;2022-12-13T07:22:13;14.63;;;6.38;;
68475;SDS011;55464;48.266;14.188;2022-12-13T07:24:38;14.63;;;7.03;;
68475;SDS011;55464;48.266;14.188;2022-12-13T07:27:04;18.15;;;7.97;;
68475;SDS011;55464;48.266;14.188;2022-12-13T07:29:30;14.23;;;6.05;;
68475;SDS011;55464;48.266;14.188;2022-12-13T07:31:55;17.85;;;7.63;;
68475;SDS011;55464;48.266;14.188;2022-12-13T07:34:21;11.77;;;6.75;;
68475;SDS011;55464;48.266;14.188;2022-12-13T07:36:50;12.50;;;6.38;;
68475;SDS011;55464;48.266;14.188;2022-12-13T07:39:16;13.07;;;7.57;;
68475;SDS011;55464;48.266;14.188;2022-12-13T07:41:41;15.77;;;7.72;;
68475;SDS011;55464;48.266;14.188;2022-12-13T07:44:07;14.93;;;6.70;;
68475;SDS011;55464;48.266;14.188;2022-12-13T07:46:34;13.07;;;7.80;;
68475;SDS011;55464;48.266;14.188;2022-12-13T07:49:00;15.57;;;7.00;;
68475;SDS011;55464;48.266;14.188;2022-12-13T07:51:26;15.43;;;7.20;;
68475;SDS011;55464;48.266;14.188;2022-12-13T07:53:52;12.18;;;6.78;;
68475;SDS011;55464;48.266;14.188;2022-12-13T07:56:21;15.77;;;6.60;;
68475;SDS011;55464;48.266;14.188;2022-12-13T07:58:47;15.85;;;7.40;;
68475;SDS011;55464;48.266;14.188;2022-12-13T08:01:13;14.38;;;7.28;;
68475;SDS011;55464;48.266;14.188;2022-12-13T08:03:46;13.63;;;6.93;;
68475;SDS011;55464;48.266;14.188;2022-12-13T08:08:37;15.80;;;6.20;;
68475;SDS011;55464;48.266;14.188;2022-12-13T08:11:04;11.30;;;5.95;;
68475;SDS011;55464;48.266;14.188;2022-12-13T08:13:34;14.73;;;7.13;;
68475;SDS011;55464;48.266;14.188;2022-12-13T08:16:01;13.77;;;6.72;;
68475;SDS011;55464;48.266;14.188;2022-12-13T08:18:28;16.90;;;7.57;;
68475;SDS011;55464;48.266;14.188;2022-12-13T08:20:58;17.42;;;7.30;;
68475;SDS011;55464;48.266;14.188;2022-12-13T08:23:26;17.92;;;7.45;;
68475;SDS011;55464;48.266;14.188;2022-12-13T08:25:57;16.75;;;7.43;;
68475;SDS011;55464;48.266;14.188;2022-12-13T08:28:25;16.88;;;7.60;;
68475;SDS011;55464;48.266;14.188;2022-12-13T08:30:54;16.42;;;7.53;;
68475;SDS011;55464;48.266;14.188;2022-12-13T08:33:25;14.07;;;6.60;;
68475;SDS011;55464;48.266;14.188;2022-12-13T08:35:51;14.82;;;6.90;;
68475;SDS011;55464;48.266;14.188;2022-12-13T08:38:21;11.75;;;6.07;;
68475;SDS011;55464;48.266;14.188;2022-12-13T08:40:47;14.32;;;6.78;;
68475;SDS011;55464;48.266;14.188;2022-12-13T08:43:16;17.17;;;7.63;;
68475;SDS011;55464;48.266;14.188;2022-12-13T08:45:41;14.43;;;6.97;;
68475;SDS011;55464;48.266;14.188;2022-12-13T08:48:08;16.92;;;7.05;;
68475;SDS011;55464;48.266;14.188;2022-12-13T08:50:39;17.13;;;7.28;;
68475;SDS011;55464;48.266;14.188;2022-12-13T08:53:05;12.77;;;6.95;;
68475;SDS011;55464;48.266;14.188;2022-12-13T08:55:36;15.13;;;7.85;;
68475;SDS011;55464;48.266;14.188;2022-12-13T08:58:03;15.73;;;7.75;;
68475;SDS011;55464;48.266;14.188;2022-12-13T09:00:36;13.60;;;7.00;;
68475;SDS011;55464;48.266;14.188;2022-12-13T09:03:05;12.73;;;6.38;;
68475;SDS011;55464;48.266;14.188;2022-12-13T09:05:30;19.90;;;7.78;;
68475;SDS011;55464;48.266;14.188;2022-12-13T09:07:57;15.52;;;7.80;;
68475;SDS011;55464;48.266;14.188;2022-12-13T09:10:24;18.27;;;7.95;;
68475;SDS011;55464;48.266;14.188;2022-12-13T09:12:54;15.90;;;7.60;;
68475;SDS011;55464;48.266;14.188;2022-12-13T09:15:23;15.13;;;7.80;;
68475;SDS011;55464;48.266;14.188;2022-12-13T09:17:51;16.48;;;7.20;;
68475;SDS011;55464;48.266;14.188;2022-12-13T09:20:17;17.75;;;7.72;;
68475;SDS011;55464;48.266;14.188;2022-12-13T09:22:43;19.98;;;8.45;;
68475;SDS011;55464;48.266;14.188;2022-12-13T09:25:09;20.52;;;8.02;;
68475;SDS011;55464;48.266;14.188;2022-12-13T09:27:35;21.20;;;9.10;;
68475;SDS011;55464;48.266;14.188;2022-12-13T09:30:02;23.45;;;7.97;;
68475;SDS011;55464;48.266;14.188;2022-12-13T09:32:29;15.25;;;7.97;;
68475;SDS011;55464;48.266;14.188;2022-12-13T09:35:05;19.48;;;8.43;;
68475;SDS011;55464;48.266;14.188;2022-12-13T09:37:32;18.25;;;8.88;;
68475;SDS011;55464;48.266;14.188;2022-12-13T09:40:05;17.73;;;8.82;;
68475;SDS011;55464;48.266;14.188;2022-12-13T09:42:32;19.20;;;8.43;;
68475;SDS011;55464;48.266;14.188;2022-12-13T09:45:00;17.30;;;8.70;;
68475;SDS011;55464;48.266;14.188;2022-12-13T09:47:32;18.00;;;9.80;;
68475;SDS011;55464;48.266;14.188;2022-12-13T09:50:08;20.40;;;9.60;;
68475;SDS011;55464;48.266;14.188;2022-12-13T09:53:03;16.55;;;8.88;;
68475;SDS011;55464;48.266;14.188;2022-12-13T09:55:37;19.17;;;9.77;;
68475;SDS011;55464;48.266;14.188;2022-12-13T09:58:28;17.67;;;9.50;;
68475;SDS011;55464;48.266;14.188;2022-12-13T10:00:56;17.88;;;8.80;;
68475;SDS011;55464;48.266;14.188;2022-12-13T10:03:23;18.25;;;9.23;;
68475;SDS011;55464;48.266;14.188;2022-12-13T10:05:53;21.08;;;9.05;;
68475;SDS011;55464;48.266;14.188;2022-12-13T10:08:35;24.13;;;10.05;;
68475;SDS011;55464;48.266;14.188;2022-12-13T10:11:21;16.80;;;8.27;;
68475;SDS011;55464;48.266;14.188;2022-12-13T10:13:58;17.67;;;9.50;;
68475;SDS011;55464;48.266;14.188;2022-12-13T10:19:13;16.63;;;9.30;;
68475;SDS011;55464;48.266;14.188;2022-12-13T10:21:46;18.13;;;8.93;;
68475;SDS011;55464;48.266;14.188;2022-12-13T10:24:19;20.20;;;9.65;;
68475;SDS011;55464;48.266;14.188;2022-12-13T10:26:49;18.27;;;9.18;;
68475;SDS011;55464;48.266;14.188;2022-12-13T10:29:15;19.30;;;9.23;;
68475;SDS011;55464;48.266;14.188;2022-12-13T10:31:48;18.33;;;8.95;;
68475;SDS011;55464;48.266;14.188;2022-12-13T10:34:33;17.95;;;9.95;;
68475;SDS011;55464;48.266;14.188;2022-12-13T10:39:52;18.63;;;9.00;;
68475;SDS011;55464;48.266;14.188;2022-12-13T10:42:20;22.17;;;9.13;;
68475;SDS011;55464;48.266;14.188;2022-12-13T10:44:48;19.30;;;9.13;;
68475;SDS011;55464;48.266;14.188;2022-12-13T10:47:19;18.98;;;8.80;;
68475;SDS011;55464;48.266;14.188;2022-12-13T10:49:55;20.13;;;9.45;;
68475;SDS011;55464;48.266;14.188;2022-12-13T10:52:29;18.20;;;9.00;;
68475;SDS011;55464;48.266;14.188;2022-12-13T10:54:59;19.35;;;8.80;;
68475;SDS011;55464;48.266;14.188;2022-12-13T10:57:30;22.85;;;9.57;;
68475;SDS011;55464;48.266;14.188;2022-12-13T10:59:57;19.52;;;9.55;;
68475;SDS011;55464;48.266;14.188;2022-12-13T11:10:55;19.55;;;8.85;;
68475;SDS011;55464;48.266;14.188;2022-12-13T11:13:33;19.67;;;8.85;;
68475;SDS011;55464;48.266;14.188;2022-12-13T11:16:13;19.20;;;9.70;;
68475;SDS011;55464;48.266;14.188;2022-12-13T11:18:52;19.35;;;8.95;;
68475;SDS011;55464;48.266;14.188;2022-12-13T11:21:24;17.50;;;9.40;;
68475;SDS011;55464;48.266;14.188;2022-12-13T11:23:55;15.18;;;8.10;;
68475;SDS011;55464;48.266;14.188;2022-12-13T11:26:25;20.75;;;9.35;;
68475;SDS011;55464;48.266;14.188;2022-12-13T11:32:02;18.02;;;8.98;;
68475;SDS011;55464;48.266;14.188;2022-12-13T11:40:36;15.75;;;8.30;;
68475;SDS011;55464;48.266;14.188;2022-12-13T11:45:52;16.40;;;7.60;;
68475;SDS011;55464;48.266;14.188;2022-12-13T11:51:10;17.77;;;9.25;;
68475;SDS011;55464;48.266;14.188;2022-12-13T11:53:53;14.90;;;7.97;;
68475;SDS011;55464;48.266;14.188;2022-12-13T11:56:49;15.50;;;8.55;;
68475;SDS011;55464;48.266;14.188;2022-12-13T11:59:26;13.88;;;8.52;;
68475;SDS011;55464;48.266;14.188;2022-12-13T12:04:44;14.57;;;8.10;;
68475;SDS011;55464;48.266;14.188;2022-12-13T12:07:12;19.38;;;9.30;;
68475;SDS011;55464;48.266;14.188;2022-12-13T12:09:40;18.75;;;9.15;;
68475;SDS011;55464;48.266;14.188;2022-12-13T12:12:13;16.92;;;8.57;;
68475;SDS011;55464;48.266;14.188;2022-12-13T12:14:58;15.90;;;8.45;;
68475;SDS011;55464;48.266;14.188;2022-12-13T12:19:53;18.27;;;8.23;;
68475;SDS011;55464;48.266;14.188;2022-12-13T12:38:48;17.70;;;9.55;;
68475;SDS011;55464;48.266;14.188;2022-12-13T12:41:46;18.25;;;9.50;;
68475;SDS011;55464;48.266;14.188;2022-12-13T12:44:30;19.73;;;9.70;;
68475;SDS011;55464;48.266;14.188;2022-12-13T12:47:59;18.98;;;9.85;;
68475;SDS011;55464;48.266;14.188;2022-12-13T12:58:59;17.83;;;9.00;;
68475;SDS011;55464;48.266;14.188;2022-12-13T13:04:27;15.18;;;8.00;;
68475;SDS011;55464;48.266;14.188;2022-12-13T13:07:33;13.52;;;8.38;;
68475;SDS011;55464;48.266;14.188;2022-12-13T13:09:55;15.63;;;9.70;;
68475;SDS011;55464;48.266;14.188;2022-12-13T13:12:23;16.60;;;8.98;;
68475;SDS011;55464;48.266;14.188;2022-12-13T13:14:51;18.23;;;9.18;;
68475;SDS011;55464;48.266;14.188;2022-12-13T13:22:36;19.20;;;9.90;;
68475;SDS011;55464;48.266;14.188;2022-12-13T13:27:35;19.88;;;9.23;;
68475;SDS011;55464;48.266;14.188;2022-12-13T13:30:14;17.58;;;9.15;;
68475;SDS011;55464;48.266;14.188;2022-12-13T13:32:42;18.25;;;9.32;;
68475;SDS011;55464;48.266;14.188;2022-12-13T13:37:53;17.92;;;9.60;;
68475;SDS011;55464;48.266;14.188;2022-12-13T13:40:32;17.38;;;9.32;;
68475;SDS011;55464;48.266;14.188;2022-12-13T14:08:18;18.80;;;9.13;;
68475;SDS011;55464;48.266;14.188;2022-12-13T14:31:20;20.60;;;9.13;;
68475;SDS011;55464;48.266;14.188;2022-12-13T14:33:48;21.20;;;9.48;;
68475;SDS011;55464;48.266;14.188;2022-12-13T14:36:17;21.13;;;10.07;;
68475;SDS011;55464;48.266;14.188;2022-12-13T14:39:14;19.70;;;9.00;;
68475;SDS011;55464;48.266;14.188;2022-12-13T14:41:49;16.48;;;9.30;;
68475;SDS011;55464;48.266;14.188;2022-12-13T14:46:55;17.98;;;10.23;;
68475;SDS011;55464;48.266;14.188;2022-12-13T14:51:55;22.35;;;10.02;;
68475;SDS011;55464;48.266;14.188;2022-12-13T14:57:23;16.05;;;8.27;;
68475;SDS011;55464;48.266;14.188;2022-12-13T14:59:51;19.10;;;8.77;;
68475;SDS011;55464;48.266;14.188;2022-12-13T15:02:29;18.02;;;8.85;;
68475;SDS011;55464;48.266;14.188;2022-12-13T15:05:01;18.25;;;9.27;;
68475;SDS011;55464;48.266;14.188;2022-12-13T15:10:03;18.25;;;8.73;;
68475;SDS011;55464;48.266;14.188;2022-12-13T15:18:31;19.38;;;9.68;;
68475;SDS011;55464;48.266;14.188;2022-12-13T15:20:50;19.85;;;9.52;;
68475;SDS011;55464;48.266;14.188;2022-12-13T15:26:28;25.92;;;11.05;;
68475;SDS011;55464;48.266;14.188;2022-12-13T15:28:41;23.73;;;11.77;;
68475;SDS011;55464;48.266;14.188;2022-12-13T15:31:09;24.90;;;10.35;;
68475;SDS011;55464;48.266;14.188;2022-12-13T15:33:35;25.85;;;11.35;;
68475;SDS011;55464;48.266;14.188;2022-12-13T15:38:33;21.83;;;10.02;;
68475;SDS011;55464;48.266;14.188;2022-12-13T15:41:04;18.42;;;9.18;;
68475;SDS011;55464;48.266;14.188;2022-12-13T15:43:41;17.17;;;8.00;;
68475;SDS011;55464;48.266;14.188;2022-12-13T15:46:11;17.42;;;8.73;;
68475;SDS011;55464;48.266;14.188;2022-12-13T15:48:38;18.52;;;8.88;;
68475;SDS011;55464;48.266;14.188;2022-12-13T15:51:14;17.98;;;8.43;;
68475;SDS011;55464;48.266;14.188;2022-12-13T15:56:34;18.70;;;8.35;;
68475;SDS011;55464;48.266;14.188;2022-12-13T15:59:32;15.85;;;7.75;;
68475;SDS011;55464;48.266;14.188;2022-12-13T16:01:59;17.23;;;7.38;;
68475;SDS011;55464;48.266;14.188;2022-12-13T16:04:27;14.25;;;7.65;;
68475;SDS011;55464;48.266;14.188;2022-12-13T16:06:55;17.27;;;8.63;;
68475;SDS011;55464;48.266;14.188;2022-12-13T16:09:25;21.20;;;9.43;;
68475;SDS011;55464;48.266;14.188;2022-12-13T16:12:00;21.38;;;9.32;;
68475;SDS011;55464;48.266;14.188;2022-12-13T16:16:58;18.13;;;8.40;;
68475;SDS011;55464;48.266;14.188;2022-12-13T16:19:37;15.73;;;7.13;;
68475;SDS011;55464;48.266;14.188;2022-12-13T16:22:03;16.65;;;8.07;;
68475;SDS011;55464;48.266;14.188;2022-12-13T16:24:29;16.25;;;7.78;;
68475;SDS011;55464;48.266;14.188;2022-12-13T16:26:55;18.23;;;8.13;;
68475;SDS011;55464;48.266;14.188;2022-12-13T16:29:22;15.35;;;7.78;;
68475;SDS011;55464;48.266;14.188;2022-12-13T16:31:51;17.80;;;8.57;;
68475;SDS011;55464;48.266;14.188;2022-12-13T16:34:21;16.38;;;8.70;;
68475;SDS011;55464;48.266;14.188;2022-12-13T16:36:47;16.48;;;8.13;;
68475;SDS011;55464;48.266;14.188;2022-12-13T16:39:13;19.50;;;8.65;;
68475;SDS011;55464;48.266;14.188;2022-12-13T16:41:42;15.07;;;7.85;;
68475;SDS011;55464;48.266;14.188;2022-12-13T16:44:12;19.10;;;9.35;;
68475;SDS011;55464;48.266;14.188;2022-12-13T16:46:52;17.67;;;9.48;;
68475;SDS011;55464;48.266;14.188;2022-12-13T16:49:25;19.63;;;8.43;;
68475;SDS011;55464;48.266;14.188;2022-12-13T16:51:52;17.63;;;7.90;;
68475;SDS011;55464;48.266;14.188;2022-12-13T16:54:19;11.70;;;6.93;;
68475;SDS011;55464;48.266;14.188;2022-12-13T16:56:52;13.90;;;7.03;;
68475;SDS011;55464;48.266;14.188;2022-12-13T16:59:24;15.85;;;6.47;;
68475;SDS011;55464;48.266;14.188;2022-12-13T17:01:54;13.70;;;6.25;;
68475;SDS011;55464;48.266;14.188;2022-12-13T17:04:20;10.50;;;5.82;;
68475;SDS011;55464;48.266;14.188;2022-12-13T17:06:51;16.02;;;6.10;;
68475;SDS011;55464;48.266;14.188;2022-12-13T17:09:17;13.57;;;5.67;;
68475;SDS011;55464;48.266;14.188;2022-12-13T17:11:43;9.43;;;5.55;;
68475;SDS011;55464;48.266;14.188;2022-12-13T17:14:09;11.60;;;5.50;;
68475;SDS011;55464;48.266;14.188;2022-12-13T17:16:35;10.50;;;5.35;;
68475;SDS011;55464;48.266;14.188;2022-12-13T17:19:04;7.22;;;4.38;;
68475;SDS011;55464;48.266;14.188;2022-12-13T17:21:33;9.55;;;5.00;;
68475;SDS011;55464;48.266;14.188;2022-12-13T17:23:59;8.00;;;4.22;;
68475;SDS011;55464;48.266;14.188;2022-12-13T17:26:28;8.05;;;4.57;;
68475;SDS011;55464;48.266;14.188;2022-12-13T17:28:55;10.13;;;5.10;;
68475;SDS011;55464;48.266;14.188;2022-12-13T17:31:24;9.20;;;4.68;;
68475;SDS011;55464;48.266;14.188;2022-12-13T17:33:49;8.40;;;5.03;;
68475;SDS011;55464;48.266;14.188;2022-12-13T17:36:16;14.27;;;6.68;;
68475;SDS011;55464;48.266;14.188;2022-12-13T17:38:43;15.20;;;7.32;;
68475;SDS011;55464;48.266;14.188;2022-12-13T17:41:10;20.23;;;9.02;;
68475;SDS011;55464;48.266;14.188;2022-12-13T17:43:39;16.50;;;8.18;;
68475;SDS011;55464;48.266;14.188;2022-12-13T17:46:06;12.45;;;6.43;;
68475;SDS011;55464;48.266;14.188;2022-12-13T17:48:38;12.98;;;6.25;;
68475;SDS011;55464;48.266;14.188;2022-12-13T17:51:07;11.18;;;5.55;;
68475;SDS011;55464;48.266;14.188;2022-12-13T17:53:40;14.05;;;6.20;;
68475;SDS011;55464;48.266;14.188;2022-12-13T17:56:08;9.23;;;5.68;;
68475;SDS011;55464;48.266;14.188;2022-12-13T17:58:44;11.05;;;5.32;;
68475;SDS011;55464;48.266;14.188;2022-12-13T18:01:17;10.88;;;4.70;;
68475;SDS011;55464;48.266;14.188;2022-12-13T18:06:20;9.95;;;4.97;;
68475;SDS011;55464;48.266;14.188;2022-12-13T18:08:47;15.98;;;7.75;;
68475;SDS011;55464;48.266;14.188;2022-12-13T18:11:17;15.70;;;8.23;;
68475;SDS011;55464;48.266;14.188;2022-12-13T18:13:53;18.58;;;8.93;;
68475;SDS011;55464;48.266;14.188;2022-12-13T18:16:20;10.48;;;6.13;;
68475;SDS011;55464;48.266;14.188;2022-12-13T18:18:47;8.73;;;5.70;;
68475;SDS011;55464;48.266;14.188;2022-12-13T18:21:17;10.35;;;6.03;;
68475;SDS011;55464;48.266;14.188;2022-12-13T18:23:44;12.60;;;6.90;;
68475;SDS011;55464;48.266;14.188;2022-12-13T18:26:17;9.82;;;6.20;;
68475;SDS011;55464;48.266;14.188;2022-12-13T18:28:43;14.38;;;8.02;;
68475;SDS011;55464;48.266;14.188;2022-12-13T18:31:10;10.85;;;6.53;;
68475;SDS011;55464;48.266;14.188;2022-12-13T18:33:45;11.35;;;5.60;;
68475;SDS011;55464;48.266;14.188;2022-12-13T18:36:14;9.00;;;5.28;;
68475;SDS011;55464;48.266;14.188;2022-12-13T18:38:41;11.35;;;5.63;;
68475;SDS011;55464;48.266;14.188;2022-12-13T18:41:11;12.23;;;5.57;;
68475;SDS011;55464;48.266;14.188;2022-12-13T18:43:52;11.35;;;5.38;;
68475;SDS011;55464;48.266;14.188;2022-12-13T18:46:24;10.43;;;5.82;;